Terminal Aerodrome Forecast
Issued by NWS

Home | Current Version | Previous Version | Text Only | Print | Product List | Glossary On
Versions: 1 2 3 4 5 6 7 8 9 10 11 12 13 14 15 16 17 18 19 20 21 22
000
FTUS44 KLZK 050100 AAA
TAFHRO
TAF AMD
KHRO 050128Z 0501/0524 01010KT 3SM -SN BR SCT015 OVC035
      TEMPO 0501/0504 1SM -SN BR OVC015
     FM050400 36012KT 2SM -SN BR OVC005
     FM050800 02010KT 3SM -SN BR OVC012
     FM051200 31005KT P6SM BKN030
     FM051800 35007KT P6SM OVC050=

USA.gov is the U.S. government's official web portal to all federal, state and local government web resources and services.